Time,TemperatureF,DewpointF,PressureIn,WindDirection,WindDirectionDegrees,WindSpeedMPH,WindSpeedGustMPH,Humidity,HourlyPrecipIn,Conditions,Clouds,dailyrainin,SoftwareType,DateUTC
2013-03-29 00:13:00,-999.0,-99.9,30.19,North,-999,-999.0,-999.0,-999,-99.99,,,0.00,weatherlink.com 1.10,2013-03-29 04:13:00,
2013-03-29 00:28:00,-999.0,-99.9,30.18,North,-999,-999.0,-999.0,-999,-99.99,,,0.00,weatherlink.com 1.10,2013-03-29 04:28:00,
2013-03-29 00:42:00,-999.0,-99.9,30.18,North,-999,-999.0,-999.0,-999,-99.99,,,0.00,weatherlink.com 1.10,2013-03-29 04:42:00,
2013-03-29 00:57:00,-999.0,-99.9,30.18,North,-999,-999.0,-999.0,-999,-99.99,,,0.00,weatherlink.com 1.10,2013-03-29 04:57:00,
2013-03-29 01:13:00,-999.0,-99.9,30.18,North,-999,-999.0,-999.0,-999,-99.99,,,0.00,weatherlink.com 1.10,2013-03-29 05:13:00,
2013-03-29 01:28:00,-999.0,-99.9,30.18,North,-999,-999.0,-999.0,-999,-99.99,,,0.00,weatherlink.com 1.10,2013-03-29 05:28:00,
2013-03-29 01:43:00,-999.0,-99.9,30.18,North,-999,-999.0,-999.0,-999,-99.99,,,0.00,weatherlink.com 1.10,2013-03-29 05:43:00,
2013-03-29 01:58:00,-999.0,-99.9,30.18,North,-999,-999.0,-999.0,-999,-99.99,,,0.00,weatherlink.com 1.10,2013-03-29 05:58:00,
2013-03-29 02:12:00,-999.0,-99.9,30.18,North,-999,-999.0,-999.0,-999,-99.99,,,0.00,weatherlink.com 1.10,2013-03-29 06:12:00,
2013-03-29 02:28:00,-999.0,-99.9,30.18,North,-999,-999.0,-999.0,-999,-99.99,,,0.00,weatherlink.com 1.10,2013-03-29 06:28:00,
2013-03-29 02:42:00,-999.0,-99.9,30.18,North,-999,-999.0,-999.0,-999,-99.99,,,0.00,weatherlink.com 1.10,2013-03-29 06:42:00,
2013-03-29 02:58:00,-999.0,-99.9,30.18,North,-999,-999.0,-999.0,-999,-99.99,,,0.00,weatherlink.com 1.10,2013-03-29 06:58:00,
2013-03-29 03:12:00,-999.0,-99.9,30.18,North,-999,-999.0,-999.0,-999,-99.99,,,0.00,weatherlink.com 1.10,2013-03-29 07:12:00,
2013-03-29 03:28:00,-999.0,-99.9,30.18,North,-999,-999.0,-999.0,-999,-99.99,,,0.00,weatherlink.com 1.10,2013-03-29 07:28:00,
2013-03-29 03:43:00,-999.0,-99.9,30.18,North,-999,-999.0,-999.0,-999,-99.99,,,0.00,weatherlink.com 1.10,2013-03-29 07:43:00,
2013-03-29 03:58:00,-999.0,-99.9,30.17,North,-999,-999.0,-999.0,-999,-99.99,,,0.00,weatherlink.com 1.10,2013-03-29 07:58:00,
2013-03-29 04:12:00,-999.0,-99.9,30.17,North,-999,-999.0,-999.0,-999,-99.99,,,0.00,weatherlink.com 1.10,2013-03-29 08:12:00,
2013-03-29 04:28:00,-999.0,-99.9,30.17,North,-999,-999.0,-999.0,-999,-99.99,,,0.00,weatherlink.com 1.10,2013-03-29 08:28:00,
2013-03-29 04:42:00,-999.0,-99.9,30.17,North,-999,-999.0,-999.0,-999,-99.99,,,0.00,weatherlink.com 1.10,2013-03-29 08:42:00,
2013-03-29 04:58:00,-999.0,-99.9,30.17,North,-999,-999.0,-999.0,-999,-99.99,,,0.00,weatherlink.com 1.10,2013-03-29 08:58:00,
2013-03-29 05:13:00,-999.0,-99.9,30.17,North,-999,-999.0,-999.0,-999,-99.99,,,0.00,weatherlink.com 1.10,2013-03-29 09:13:00,
2013-03-29 05:27:00,-999.0,-99.9,30.17,North,-999,-999.0,-999.0,-999,-99.99,,,0.00,weatherlink.com 1.10,2013-03-29 09:27:00,
2013-03-29 05:43:00,-999.0,-99.9,30.17,North,-999,-999.0,-999.0,-999,-99.99,,,0.00,weatherlink.com 1.10,2013-03-29 09:43:00,
2013-03-29 05:58:00,-999.0,-99.9,30.17,North,-999,-999.0,-999.0,-999,-99.99,,,0.00,weatherlink.com 1.10,2013-03-29 09:58:00,
2013-03-29 06:13:00,-999.0,-99.9,30.17,North,-999,-999.0,-999.0,-999,-99.99,,,0.00,weatherlink.com 1.10,2013-03-29 10:13:00,
2013-03-29 06:27:00,-999.0,-99.9,30.17,North,-999,-999.0,-999.0,-999,-99.99,,,0.00,weatherlink.com 1.10,2013-03-29 10:27:00,
2013-03-29 06:43:00,-999.0,-99.9,30.17,North,-999,-999.0,-999.0,-999,-99.99,,,0.00,weatherlink.com 1.10,2013-03-29 10:43:00,
2013-03-29 06:57:00,-999.0,-99.9,30.17,North,-999,-999.0,-999.0,-999,-99.99,,,0.00,weatherlink.com 1.10,2013-03-29 10:57:00,
2013-03-29 07:13:00,-999.0,-99.9,30.18,North,-999,-999.0,-999.0,-999,-99.99,,,0.00,weatherlink.com 1.10,2013-03-29 11:13:00,
2013-03-29 07:28:00,-999.0,-99.9,30.18,North,-999,-999.0,-999.0,-999,-99.99,,,0.00,weatherlink.com 1.10,2013-03-29 11:28:00,
2013-03-29 07:43:00,-999.0,-99.9,30.18,North,-999,-999.0,-999.0,-999,-99.99,,,0.00,weatherlink.com 1.10,2013-03-29 11:43:00,
2013-03-29 07:58:00,-999.0,-99.9,30.18,North,-999,-999.0,-999.0,-999,-99.99,,,0.00,weatherlink.com 1.10,2013-03-29 11:58:00,
2013-03-29 08:13:00,-999.0,-99.9,30.18,North,-999,-999.0,-999.0,-999,-99.99,,,0.00,weatherlink.com 1.10,2013-03-29 12:13:00,
2013-03-29 08:28:00,-999.0,-99.9,30.18,North,-999,-999.0,-999.0,-999,-99.99,,,0.00,weatherlink.com 1.10,2013-03-29 12:28:00,
2013-03-29 08:42:00,-999.0,-99.9,30.19,North,-999,-999.0,-999.0,-999,-99.99,,,0.00,weatherlink.com 1.10,2013-03-29 12:42:00,
2013-03-29 08:58:00,38.6,28.0,30.19,NW,315,2.0,-999.0,67,-99.99,,,0.00,weatherlink.com 1.10,2013-03-29 12:58:00,
2013-03-29 09:13:00,39.4,30.0,30.19,West,274,3.0,-999.0,68,-99.99,,,0.00,weatherlink.com 1.10,2013-03-29 13:13:00,
2013-03-29 09:52:00,40.1,31.0,30.19,West,279,0.0,-999.0,70,-99.99,,,0.00,weatherlink.com 1.10,2013-03-29 13:52:00,
2013-03-29 09:58:00,40.4,31.0,30.19,WNW,290,3.0,-999.0,70,-99.99,,,0.00,weatherlink.com 1.10,2013-03-29 13:58:00,
2013-03-29 10:13:00,40.5,31.0,30.19,West,261,2.0,-999.0,70,-99.99,,,0.00,weatherlink.com 1.10,2013-03-29 14:13:00,
2013-03-29 10:28:00,40.5,31.0,30.19,WSW,246,4.0,-999.0,69,-99.99,,,0.00,weatherlink.com 1.10,2013-03-29 14:28:00,
2013-03-29 10:43:00,42.7,34.0,30.19,WNW,290,7.0,-999.0,71,-99.99,,,0.00,weatherlink.com 1.10,2013-03-29 14:43:00,
2013-03-29 10:58:00,43.0,34.0,30.19,WNW,296,2.0,-999.0,71,-99.99,,,0.00,weatherlink.com 1.10,2013-03-29 14:58:00,
2013-03-29 11:13:00,43.0,34.0,30.19,WNW,287,7.0,-999.0,71,-99.99,,,0.00,weatherlink.com 1.10,2013-03-29 15:13:00,
2013-03-29 11:28:00,43.7,35.0,30.19,SW,216,2.0,-999.0,71,-99.99,,,0.00,weatherlink.com 1.10,2013-03-29 15:28:00,
2013-03-29 11:43:00,44.0,35.0,30.18,SW,219,6.0,-999.0,70,-99.99,,,0.00,weatherlink.com 1.10,2013-03-29 15:43:00,
2013-03-29 11:58:00,45.5,36.0,30.18,WNW,286,4.0,-999.0,70,-99.99,,,0.00,weatherlink.com 1.10,2013-03-29 15:58:00,
2013-03-29 12:13:00,46.1,36.0,30.17,SW,218,5.0,-999.0,68,-99.99,,,0.00,weatherlink.com 1.10,2013-03-29 16:13:00,
2013-03-29 12:28:00,47.4,37.0,30.17,WNW,287,7.0,-999.0,67,-99.99,,,0.00,weatherlink.com 1.10,2013-03-29 16:28:00,
2013-03-29 12:43:00,47.6,36.0,30.16,SW,218,3.0,-999.0,65,-99.99,,,0.00,weatherlink.com 1.10,2013-03-29 16:43:00,
2013-03-29 12:58:00,47.6,36.0,30.16,WSW,258,2.0,-999.0,65,-99.99,,,0.00,weatherlink.com 1.10,2013-03-29 16:58:00,
2013-03-29 13:13:00,48.6,37.0,30.15,West,281,3.0,-999.0,64,-99.99,,,0.00,weatherlink.com 1.10,2013-03-29 17:13:00,
2013-03-29 13:28:00,50.2,37.0,30.14,WSW,250,2.0,-999.0,61,-99.99,,,0.00,weatherlink.com 1.10,2013-03-29 17:28:00,
2013-03-29 13:43:00,49.7,37.0,30.14,West,267,5.0,-999.0,62,-99.99,,,0.00,weatherlink.com 1.10,2013-03-29 17:43:00,
2013-03-29 13:58:00,49.6,36.0,30.13,WNW,303,10.0,-999.0,61,-99.99,,,0.00,weatherlink.com 1.10,2013-03-29 17:58:00,
2013-03-29 14:13:00,51.0,36.0,30.12,West,263,6.0,-999.0,57,-99.99,,,0.00,weatherlink.com 1.10,2013-03-29 18:13:00,
2013-03-29 14:28:00,49.2,36.0,30.12,WSW,252,2.0,-999.0,60,-99.99,,,0.00,weatherlink.com 1.10,2013-03-29 18:28:00,
2013-03-29 14:43:00,49.3,35.0,30.12,West,279,1.0,-999.0,58,-99.99,,,0.00,weatherlink.com 1.10,2013-03-29 18:43:00,
2013-03-29 14:58:00,49.8,36.0,30.12,WNW,287,0.0,-999.0,59,-99.99,,,0.00,weatherlink.com 1.10,2013-03-29 18:58:00,
2013-03-29 15:13:00,50.4,36.0,30.11,WNW,298,0.0,-999.0,58,-99.99,,,0.00,weatherlink.com 1.10,2013-03-29 19:13:00,
2013-03-29 15:27:00,49.6,36.0,30.11,NNW,335,0.0,-999.0,59,-99.99,,,0.00,weatherlink.com 1.10,2013-03-29 19:27:00,
2013-03-29 15:43:00,51.6,36.0,30.11,WSW,254,3.0,-999.0,55,-99.99,,,0.00,weatherlink.com 1.10,2013-03-29 19:43:00,
2013-03-29 15:58:00,52.7,33.0,30.11,WNW,298,0.0,-999.0,48,-99.99,,,0.00,weatherlink.com 1.10,2013-03-29 19:58:00,
2013-03-29 16:13:00,50.6,32.0,30.11,NNW,342,6.0,-999.0,49,-99.99,,,0.00,weatherlink.com 1.10,2013-03-29 20:13:00,
2013-03-29 16:28:00,50.6,32.0,30.11,West,268,0.0,-999.0,50,-99.99,,,0.00,weatherlink.com 1.10,2013-03-29 20:28:00,
2013-03-29 16:43:00,50.8,33.0,30.11,NW,317,0.0,-999.0,50,-99.99,,,0.00,weatherlink.com 1.10,2013-03-29 20:43:00,
2013-03-29 16:58:00,50.3,32.0,30.10,WNW,303,0.0,-999.0,50,-99.99,,,0.00,weatherlink.com 1.10,2013-03-29 20:58:00,
2013-03-29 17:13:00,50.8,32.0,30.10,NW,320,2.0,-999.0,48,-99.99,,,0.00,weatherlink.com 1.10,2013-03-29 21:13:00,
2013-03-29 17:28:00,51.9,32.0,30.10,NW,307,4.0,-999.0,46,-99.99,,,0.00,weatherlink.com 1.10,2013-03-29 21:28:00,
2013-03-29 17:43:00,52.8,32.0,30.10,WNW,299,4.0,-999.0,45,-99.99,,,0.00,weatherlink.com 1.10,2013-03-29 21:43:00,
2013-03-29 17:58:00,52.0,32.0,30.11,NW,315,2.0,-999.0,46,-99.99,,,0.00,weatherlink.com 1.10,2013-03-29 21:58:00,
2013-03-29 18:13:00,50.1,30.0,30.10,WNW,295,5.0,-999.0,47,-99.99,,,0.00,weatherlink.com 1.10,2013-03-29 22:13:00,
2013-03-29 18:28:00,50.1,30.0,30.11,NW,304,0.0,-999.0,47,-99.99,,,0.00,weatherlink.com 1.10,2013-03-29 22:28:00,
2013-03-29 18:43:00,49.4,30.0,30.11,WNW,288,0.0,-999.0,48,-99.99,,,0.00,weatherlink.com 1.10,2013-03-29 22:43:00,
2013-03-29 18:58:00,48.8,30.0,30.11,WNW,286,2.0,-999.0,49,-99.99,,,0.00,weatherlink.com 1.10,2013-03-29 22:58:00,
2013-03-29 19:13:00,48.0,30.0,30.11,NW,310,0.0,-999.0,50,-99.99,,,0.00,weatherlink.com 1.10,2013-03-29 23:13:00,
2013-03-29 19:28:00,47.5,30.0,30.12,West,281,1.0,-999.0,51,-99.99,,,0.00,weatherlink.com 1.10,2013-03-29 23:28:00,
2013-03-29 19:43:00,47.7,30.0,30.12,WNW,292,0.0,-999.0,51,-99.99,,,0.00,weatherlink.com 1.10,2013-03-29 23:43:00,
2013-03-29 19:58:00,47.8,31.0,30.12,WNW,290,0.0,-999.0,52,-99.99,,,0.00,weatherlink.com 1.10,2013-03-29 23:58:00,
2013-03-29 20:13:00,47.4,33.0,30.12,West,263,0.0,-999.0,58,-99.99,,,0.00,weatherlink.com 1.10,2013-03-30 00:13:00,
2013-03-29 20:28:00,46.5,34.0,30.13,West,274,0.0,-999.0,61,-99.99,,,0.00,weatherlink.com 1.10,2013-03-30 00:28:00,
2013-03-29 20:43:00,45.7,33.0,30.14,West,280,2.0,-999.0,62,-99.99,,,0.00,weatherlink.com 1.10,2013-03-30 00:43:00,
2013-03-29 20:58:00,44.9,33.0,30.14,WNW,297,2.0,-999.0,63,-99.99,,,0.00,weatherlink.com 1.10,2013-03-30 00:58:00,
2013-03-29 21:13:00,44.4,33.0,30.14,WSW,239,0.0,-999.0,64,-99.99,,,0.00,weatherlink.com 1.10,2013-03-30 01:13:00,
2013-03-29 21:28:00,-999.0,-99.9,30.14,North,-999,-999.0,-999.0,-999,-99.99,,,0.00,weatherlink.com 1.10,2013-03-30 01:28:00,
2013-03-29 21:43:00,-999.0,-99.9,30.15,North,-999,-999.0,-999.0,-999,-99.99,,,0.00,weatherlink.com 1.10,2013-03-30 01:43:00,
2013-03-29 21:58:00,-999.0,-99.9,30.15,North,-999,-999.0,-999.0,-999,-99.99,,,0.00,weatherlink.com 1.10,2013-03-30 01:58:00,
2013-03-29 22:13:00,-999.0,-99.9,30.16,North,-999,-999.0,-999.0,-999,-99.99,,,0.00,weatherlink.com 1.10,2013-03-30 02:13:00,
2013-03-29 22:28:00,-999.0,-99.9,30.16,North,-999,-999.0,-999.0,-999,-99.99,,,0.00,weatherlink.com 1.10,2013-03-30 02:28:00,
2013-03-29 22:43:00,-999.0,-99.9,30.15,North,-999,-999.0,-999.0,-999,-99.99,,,0.00,weatherlink.com 1.10,2013-03-30 02:43:00,
2013-03-29 22:58:00,-999.0,-99.9,30.16,North,-999,-999.0,-999.0,-999,-99.99,,,0.00,weatherlink.com 1.10,2013-03-30 02:58:00,
2013-03-29 23:13:00,-999.0,-99.9,30.16,North,-999,-999.0,-999.0,-999,-99.99,,,0.00,weatherlink.com 1.10,2013-03-30 03:13:00,
2013-03-29 23:28:00,-999.0,-99.9,30.16,North,-999,-999.0,-999.0,-999,-99.99,,,0.00,weatherlink.com 1.10,2013-03-30 03:28:00,
2013-03-29 23:43:00,-999.0,-99.9,30.16,North,-999,-999.0,-999.0,-999,-99.99,,,0.00,weatherlink.com 1.10,2013-03-30 03:43:00,
2013-03-29 23:58:00,-999.0,-99.9,30.16,North,-999,-999.0,-999.0,-999,-99.99,,,0.00,weatherlink.com 1.10,2013-03-30 03:58:00,